createdAt,value
2023-05-18T00:00:54.952Z,220.2308
2023-05-18T00:01:55.977Z,220.5385
2023-05-18T00:02:57.073Z,220.0000
2023-05-18T00:03:58.152Z,216.3077
2023-05-18T00:04:59.071Z,212.9231
2023-05-18T00:06:00.105Z,210.5385
2023-05-18T00:07:01.201Z,205.3077
2023-05-18T00:08:02.209Z,204.9231
2023-05-18T00:09:03.226Z,205.2308
2023-05-18T00:10:04.302Z,202.6154
2023-05-18T00:11:05.411Z,209.9231
2023-05-18T00:12:06.397Z,211.3846
2023-05-18T00:13:07.490Z,206.3077
2023-05-18T00:14:08.477Z,210.6154
2023-05-18T00:15:09.506Z,213.0769
2023-05-18T00:16:10.618Z,211.2308
2023-05-18T00:17:11.697Z,206.5385
2023-05-18T00:18:12.691Z,206.7692
2023-05-18T00:19:13.690Z,209.9231
2023-05-18T00:20:14.680Z,221.3077
2023-05-18T00:21:15.815Z,219.9231
2023-05-18T00:22:16.866Z,213.9231
2023-05-18T00:23:17.904Z,213.4615
2023-05-18T00:24:18.864Z,219.6154
2023-05-18T00:25:19.913Z,224.2308
2023-05-18T00:26:20.975Z,227.8462
2023-05-18T00:27:22.105Z,233.1538
2023-05-18T00:28:23.090Z,229.7692
2023-05-18T00:29:24.105Z,220.0000
2023-05-18T00:30:25.133Z,217.0769
2023-05-18T00:31:26.280Z,217.9231
2023-05-18T00:32:27.312Z,213.8462
2023-05-18T00:33:28.341Z,214.3077
2023-05-18T00:34:29.293Z,215.4615
2023-05-18T00:35:30.579Z,216.8462
2023-05-18T00:36:31.379Z,217.6154
2023-05-18T00:37:32.535Z,214.0769
2023-05-18T00:38:33.520Z,208.6154
2023-05-18T00:39:34.514Z,214.6154
2023-05-18T00:40:35.575Z,222.2308
2023-05-18T00:41:36.701Z,214.6154
2023-05-18T00:42:37.713Z,222.6923
2023-05-18T00:43:38.776Z,224.8462
2023-05-18T00:44:39.735Z,224.4615
2023-05-18T00:45:40.826Z,229.5385
2023-05-18T00:46:41.860Z,225.5385
2023-05-18T00:47:43.037Z,217.1538
2023-05-18T00:48:43.978Z,212.7692
2023-05-18T00:49:44.981Z,217.6923
2023-05-18T00:50:46.101Z,225.3077
2023-05-18T00:51:47.095Z,227.0769
2023-05-18T00:52:48.197Z,232.4615
2023-05-18T00:53:49.214Z,239.6154
2023-05-18T00:54:50.300Z,236.8462
2023-05-18T00:55:51.298Z,239.7692
2023-05-18T00:56:52.318Z,229.4615
2023-05-18T00:57:53.477Z,229.9231
2023-05-18T00:58:54.470Z,226.7692
2023-05-18T00:59:55.457Z,229.1538
2023-05-18T01:00:56.567Z,225.2308
2023-05-18T01:01:57.566Z,232.6154
2023-05-18T01:02:58.882Z,228.6154
2023-05-18T01:03:59.748Z,224.6154
2023-05-18T01:05:00.739Z,228.9231
2023-05-18T01:06:01.793Z,228.0000
2023-05-18T01:07:02.791Z,230.7692
2023-05-18T01:08:03.876Z,229.7692
2023-05-18T01:09:04.919Z,228.3077
2023-05-18T01:10:05.940Z,221.9231
2023-05-18T01:11:07.044Z,219.9231
2023-05-18T01:12:08.000Z,219.6154
2023-05-18T01:13:09.159Z,220.5385
2023-05-18T01:14:10.137Z,221.5385
2023-05-18T01:15:11.139Z,223.6154
2023-05-18T01:16:12.229Z,219.6923
2023-05-18T01:17:13.409Z,219.6923
2023-05-18T01:18:14.341Z,216.0000
2023-05-18T01:19:15.465Z,216.0769
2023-05-18T01:20:16.412Z,217.0000
2023-05-18T01:21:17.497Z,211.6154
2023-05-18T01:22:18.457Z,203.2308
2023-05-18T01:23:19.553Z,207.5385
2023-05-18T01:24:20.739Z,209.9231
2023-05-18T01:25:21.672Z,206.6923
2023-05-18T01:26:22.701Z,204.0769
2023-05-18T01:27:23.790Z,209.7692
2023-05-18T01:28:24.855Z,207.8462
2023-05-18T01:29:25.926Z,204.7692
2023-05-18T01:30:26.895Z,207.6154
2023-05-18T01:31:28.079Z,214.6154
2023-05-18T01:32:29.050Z,210.9231
2023-05-18T01:33:30.097Z,207.9231
2023-05-18T01:34:31.179Z,214.0000
2023-05-18T01:35:32.426Z,212.6154
2023-05-18T01:36:33.189Z,216.0769
2023-05-18T01:37:34.245Z,217.5385
2023-05-18T01:38:35.295Z,218.3077
2023-05-18T01:39:36.396Z,219.9231
2023-05-18T01:40:37.368Z,221.7692
2023-05-18T01:41:38.436Z,217.9231
2023-05-18T01:42:39.455Z,222.3846
2023-05-18T01:43:40.581Z,221.6923
2023-05-18T01:44:41.617Z,220.0769
2023-05-18T01:45:42.696Z,222.2308
2023-05-18T01:46:43.782Z,224.0000
2023-05-18T01:47:44.796Z,222.4615
2023-05-18T01:48:45.815Z,219.0769
2023-05-18T01:49:46.818Z,227.5385
2023-05-18T01:50:47.895Z,226.3846
2023-05-18T01:51:48.873Z,212.3077
2023-05-18T01:52:49.931Z,204.8462
2023-05-18T01:53:51.084Z,204.1538
2023-05-18T01:54:52.085Z,200.9231
2023-05-18T01:55:53.132Z,200.6154
2023-05-18T01:56:54.181Z,207.5385
2023-05-18T01:57:55.149Z,204.0000
2023-05-18T01:58:56.271Z,210.3077
2023-05-18T01:59:57.314Z,212.0769
2023-05-18T02:00:58.302Z,205.7692
2023-05-18T02:02:00.211Z,205.3077
2023-05-18T02:03:00.611Z,198.6154
2023-05-18T02:04:01.711Z,206.6154
2023-05-18T02:05:02.618Z,205.2308
2023-05-18T02:06:03.533Z,207.6923
2023-05-18T02:07:04.719Z,203.8462
2023-05-18T02:08:05.613Z,206.3077
2023-05-18T02:09:06.709Z,205.6923
2023-05-18T02:10:07.841Z,207.0769
2023-05-18T02:11:08.734Z,202.3077
2023-05-18T02:12:09.869Z,205.3846
2023-05-18T02:13:10.821Z,214.1538
2023-05-18T02:14:11.983Z,211.6154
2023-05-18T02:15:13.028Z,211.9231
2023-05-18T02:16:14.105Z,216.8462
2023-05-18T02:17:15.001Z,215.0000
2023-05-18T02:18:16.061Z,211.5385
2023-05-18T02:19:17.149Z,207.8462
2023-05-18T02:20:18.225Z,215.8462
2023-05-18T02:21:19.223Z,208.6154
2023-05-18T02:22:20.244Z,211.7692
2023-05-18T02:23:21.352Z,212.0000
2023-05-18T02:24:22.410Z,214.6154
2023-05-18T02:25:23.438Z,202.1538
2023-05-18T02:26:24.450Z,203.1538
2023-05-18T02:27:25.492Z,204.6923
2023-05-18T02:28:26.587Z,203.6923
2023-05-18T02:29:27.611Z,201.7692
2023-05-18T02:30:28.690Z,199.4615
2023-05-18T02:31:29.681Z,203.3846
2023-05-18T02:32:30.741Z,207.8462
2023-05-18T02:33:31.739Z,204.0000
2023-05-18T02:34:32.870Z,207.8462
2023-05-18T02:35:33.812Z,207.3077
2023-05-18T02:36:34.796Z,202.6923
2023-05-18T02:37:35.833Z,202.6154
2023-05-18T02:38:36.891Z,204.1538
2023-05-18T02:39:37.939Z,207.0769
2023-05-18T02:40:39.024Z,205.2308
2023-05-18T02:41:40.037Z,217.0769
2023-05-18T02:42:41.096Z,214.0769
2023-05-18T02:43:42.142Z,207.6154
2023-05-18T02:44:43.196Z,214.3846
2023-05-18T02:45:44.249Z,214.9231
2023-05-18T02:46:45.249Z,211.3077
2023-05-18T02:47:46.305Z,211.5385
2023-05-18T02:48:47.388Z,204.6154
2023-05-18T02:49:48.396Z,202.6923
2023-05-18T02:50:49.482Z,203.0000
2023-05-18T02:51:50.446Z,205.7692
2023-05-18T02:52:51.540Z,206.3077
2023-05-18T02:53:52.554Z,207.3846
2023-05-18T02:54:53.653Z,209.6154
2023-05-18T02:55:54.658Z,215.2308
2023-05-18T02:56:55.686Z,220.0000
2023-05-18T02:57:56.722Z,220.3077
2023-05-18T02:58:58.022Z,219.5385
2023-05-18T02:59:59.008Z,211.4615
2023-05-18T03:00:59.948Z,207.8462
2023-05-18T03:02:00.986Z,203.6154
2023-05-18T03:03:02.067Z,206.7692
2023-05-18T03:04:03.013Z,206.4615
2023-05-18T03:05:04.038Z,206.0000
2023-05-18T03:06:05.129Z,204.2308
2023-05-18T03:07:06.178Z,205.2308
2023-05-18T03:08:07.201Z,204.6154
2023-05-18T03:09:08.233Z,206.0769
2023-05-18T03:10:09.377Z,215.3846
2023-05-18T03:11:10.357Z,222.5385
2023-05-18T03:12:11.425Z,212.0769
2023-05-18T03:13:12.429Z,203.3846
2023-05-18T03:14:13.477Z,201.1538
2023-05-18T03:15:14.501Z,198.4615
2023-05-18T03:16:15.682Z,191.4615
2023-05-18T03:17:16.600Z,192.6923
2023-05-18T03:18:17.657Z,209.3846
2023-05-18T03:19:18.877Z,214.4615
2023-05-18T03:20:19.878Z,205.0769
2023-05-18T03:21:20.890Z,206.8462
2023-05-18T03:22:21.974Z,209.8462
2023-05-18T03:23:22.936Z,200.9231
2023-05-18T03:24:24.026Z,188.3846
2023-05-18T03:25:25.081Z,184.3846
2023-05-18T03:26:26.210Z,187.3846
2023-05-18T03:27:27.195Z,188.7692
2023-05-18T03:28:28.194Z,191.7692
2023-05-18T03:29:31.336Z,200.6154
2023-05-18T03:30:30.274Z,203.3846
2023-05-18T03:31:31.354Z,202.7692
2023-05-18T03:32:32.473Z,206.4615
2023-05-18T03:33:33.424Z,204.7692
2023-05-18T03:34:34.450Z,201.4615
2023-05-18T03:35:35.531Z,208.6154
2023-05-18T03:36:36.619Z,208.0000
2023-05-18T03:37:37.638Z,210.5385
2023-05-18T03:38:38.657Z,209.8462
2023-05-18T03:39:39.696Z,203.8462
2023-05-18T03:40:40.734Z,209.0000
2023-05-18T03:41:41.879Z,212.6923
2023-05-18T03:42:42.895Z,212.3846
2023-05-18T03:43:43.911Z,211.2308
2023-05-18T03:44:44.989Z,212.2308
2023-05-18T03:45:46.002Z,214.4615
2023-05-18T03:46:47.091Z,222.0000
2023-05-18T03:47:48.109Z,226.4615
2023-05-18T03:48:49.089Z,226.1538
2023-05-18T03:49:50.166Z,225.3846
2023-05-18T03:50:51.184Z,222.6923
2023-05-18T03:51:52.302Z,210.9231
2023-05-18T03:52:53.429Z,213.7692
2023-05-18T03:53:54.325Z,215.4615
2023-05-18T03:54:55.383Z,221.0769
2023-05-18T03:55:56.502Z,219.3846
2023-05-18T03:56:57.503Z,218.8462
2023-05-18T03:57:58.580Z,221.1538
2023-05-18T03:58:59.541Z,216.6154
2023-05-18T04:00:00.604Z,218.3846
2023-05-18T04:01:01.639Z,208.3846
2023-05-18T04:02:02.792Z,202.7692
2023-05-18T04:03:03.907Z,200.2308
2023-05-18T04:04:04.921Z,205.7692
2023-05-18T04:05:05.900Z,206.3077
2023-05-18T04:06:06.856Z,204.7692
2023-05-18T04:07:07.955Z,208.7692
2023-05-18T04:08:09.029Z,206.6923
2023-05-18T04:09:09.987Z,205.5385
2023-05-18T04:10:11.044Z,206.7692
2023-05-18T04:11:12.055Z,209.9231
2023-05-18T04:12:13.212Z,211.9231
2023-05-18T04:13:14.213Z,220.1538
2023-05-18T04:14:15.249Z,224.3846
2023-05-18T04:15:16.297Z,225.3846
2023-05-18T04:16:17.350Z,220.6923
2023-05-18T04:17:18.410Z,219.4615
2023-05-18T04:18:19.457Z,212.7692
2023-05-18T04:19:20.742Z,204.9231
2023-05-18T04:20:21.475Z,202.6154
2023-05-18T04:21:22.576Z,200.0000
2023-05-18T04:22:23.610Z,203.0769
2023-05-18T04:23:24.698Z,196.6923
2023-05-18T04:24:25.677Z,192.0769
2023-05-18T04:25:26.783Z,190.1538
2023-05-18T04:26:27.743Z,188.6154
2023-05-18T04:27:28.868Z,194.4615
2023-05-18T04:28:29.915Z,188.6154
2023-05-18T04:29:30.909Z,181.9231
2023-05-18T04:30:32.037Z,178.8462
2023-05-18T04:31:33.022Z,185.0000
2023-05-18T04:32:34.129Z,190.0000
2023-05-18T04:33:35.145Z,194.5385
2023-05-18T04:34:36.231Z,188.3077
2023-05-18T04:35:37.208Z,186.4615
2023-05-18T04:36:38.297Z,188.1538
2023-05-18T04:37:39.299Z,192.5385
2023-05-18T04:38:40.367Z,207.6154
2023-05-18T04:39:41.350Z,203.7692
2023-05-18T04:40:42.397Z,198.6154
2023-05-18T04:41:43.435Z,200.2308
2023-05-18T04:42:44.576Z,190.1538
2023-05-18T04:43:45.635Z,191.0000
2023-05-18T04:44:46.576Z,193.5385
2023-05-18T04:45:47.655Z,204.6154
2023-05-18T04:46:48.689Z,203.0000
2023-05-18T04:47:49.801Z,194.3077
2023-05-18T04:48:50.812Z,194.7692
2023-05-18T04:49:51.805Z,202.5385
2023-05-18T04:50:52.816Z,208.9231
2023-05-18T04:51:53.930Z,208.3846
2023-05-18T04:52:54.977Z,213.3846
2023-05-18T04:53:56.027Z,203.3846
2023-05-18T04:54:57.013Z,200.3077
2023-05-18T04:55:58.076Z,195.0769
2023-05-18T04:56:59.100Z,198.0000
2023-05-18T04:58:00.227Z,199.7692
2023-05-18T04:59:01.256Z,208.8462
2023-05-18T05:00:02.258Z,218.0769
2023-05-18T05:01:03.316Z,225.0000
2023-05-18T05:02:04.336Z,211.6154
2023-05-18T05:03:05.586Z,201.1538
2023-05-18T05:04:06.515Z,203.0769
2023-05-18T05:05:07.522Z,200.3077
2023-05-18T05:06:08.587Z,197.8462
2023-05-18T05:07:09.597Z,197.4615
2023-05-18T05:08:10.656Z,195.4615
2023-05-18T05:09:11.693Z,195.7692
2023-05-18T05:10:12.712Z,196.3077
2023-05-18T05:11:13.754Z,201.0769
2023-05-18T05:12:14.776Z,202.6923
2023-05-18T05:13:15.960Z,198.3077
2023-05-18T05:14:16.931Z,199.6923
2023-05-18T05:15:17.998Z,209.3846
2023-05-18T05:16:19.007Z,215.0000
2023-05-18T05:17:20.013Z,211.0000
2023-05-18T05:18:21.146Z,211.5385
2023-05-18T05:19:22.207Z,212.9231
2023-05-18T05:20:23.149Z,205.1538
2023-05-18T05:21:24.225Z,203.3846
2023-05-18T05:22:25.251Z,203.8462
2023-05-18T05:23:26.313Z,205.8462
2023-05-18T05:24:27.504Z,199.3846
2023-05-18T05:25:28.650Z,193.6154
2023-05-18T05:26:29.517Z,198.0000
2023-05-18T05:27:30.632Z,200.4615
2023-05-18T05:28:31.609Z,202.6154
2023-05-18T05:29:32.714Z,204.2308
2023-05-18T05:30:33.738Z,197.3846
2023-05-18T05:31:34.836Z,191.8462
2023-05-18T05:32:35.820Z,189.5385
2023-05-18T05:33:36.857Z,191.9231
2023-05-18T05:34:37.943Z,199.2308
2023-05-18T05:35:39.072Z,198.2308
2023-05-18T05:36:40.047Z,195.1538
2023-05-18T05:37:41.085Z,195.7692
2023-05-18T05:38:42.097Z,194.1538
2023-05-18T05:39:43.183Z,209.0769
2023-05-18T05:40:44.155Z,221.3846
2023-05-18T05:41:45.267Z,219.1538
2023-05-18T05:42:46.230Z,222.4615
2023-05-18T05:43:47.402Z,225.5385
2023-05-18T05:44:48.400Z,212.2308
2023-05-18T05:45:49.385Z,200.2308
2023-05-18T05:46:50.450Z,206.2308
2023-05-18T05:47:51.522Z,214.3077
2023-05-18T05:48:52.587Z,223.3846
2023-05-18T05:49:53.737Z,211.8462
2023-05-18T05:50:54.611Z,215.5385
2023-05-18T05:51:55.691Z,216.1538
2023-05-18T05:52:56.732Z,216.5385
2023-05-18T05:53:57.816Z,224.5385
2023-05-18T05:54:58.881Z,235.8462
2023-05-18T05:55:59.866Z,239.0000
2023-05-18T05:57:00.891Z,229.0000
2023-05-18T05:58:01.964Z,225.8462
2023-05-18T05:59:03.082Z,236.3077
2023-05-18T06:00:04.143Z,237.8462
2023-05-18T06:01:05.092Z,225.0769
2023-05-18T06:02:06.248Z,217.6154
2023-05-18T06:03:07.290Z,223.2308
2023-05-18T06:04:08.302Z,234.0769
2023-05-18T06:05:09.337Z,240.0769
2023-05-18T06:06:10.302Z,241.3077
2023-05-18T06:07:11.355Z,237.3846
2023-05-18T06:08:12.372Z,233.0769
2023-05-18T06:09:13.557Z,247.9231
2023-05-18T06:10:14.592Z,252.3077
2023-05-18T06:11:15.617Z,253.5385
2023-05-18T06:12:16.585Z,247.9231
2023-05-18T06:13:17.628Z,241.1538
2023-05-18T06:14:18.687Z,239.3846
2023-05-18T06:15:19.765Z,241.3077
2023-05-18T06:16:20.829Z,229.6154
2023-05-18T06:17:21.831Z,221.6154
2023-05-18T06:18:22.866Z,228.3846
2023-05-18T06:19:24.134Z,231.1538
2023-05-18T06:20:24.971Z,218.6154
2023-05-18T06:21:25.991Z,210.5385
2023-05-18T06:22:27.038Z,212.7692
2023-05-18T06:23:28.092Z,218.9231
2023-05-18T06:24:29.198Z,231.3846
2023-05-18T06:25:30.453Z,242.0769
2023-05-18T06:26:31.257Z,225.8462
2023-05-18T06:27:32.320Z,219.5385
2023-05-18T06:28:33.333Z,224.3846
2023-05-18T06:29:34.468Z,234.9231
2023-05-18T06:30:35.451Z,243.3846
2023-05-18T06:31:36.541Z,240.9231
2023-05-18T06:32:37.610Z,240.7692
2023-05-18T06:33:38.613Z,238.7692
2023-05-18T06:34:39.680Z,231.4615
2023-05-18T06:35:40.713Z,226.4615
2023-05-18T06:36:41.710Z,226.5385
2023-05-18T06:37:44.183Z,232.6154
2023-05-18T06:38:43.895Z,227.0769
2023-05-18T06:39:44.937Z,221.9231
2023-05-18T06:40:45.956Z,211.7692
2023-05-18T06:41:46.976Z,216.0000
2023-05-18T06:42:48.024Z,222.3846
2023-05-18T06:43:49.138Z,222.3846
2023-05-18T06:44:50.178Z,220.4615
2023-05-18T06:45:51.226Z,227.1538
2023-05-18T06:46:52.214Z,226.8462
2023-05-18T06:47:53.290Z,233.9231
2023-05-18T06:48:54.333Z,246.2308
2023-05-18T06:49:55.492Z,245.6923
2023-05-18T06:50:56.537Z,246.5385
2023-05-18T06:51:57.458Z,249.0769
2023-05-18T06:52:58.555Z,250.6923
2023-05-18T06:53:59.565Z,248.7692
2023-05-18T06:55:00.656Z,237.9231
2023-05-18T06:56:01.698Z,239.4615
2023-05-18T06:57:02.700Z,239.7692
2023-05-18T06:58:03.738Z,233.7692
2023-05-18T06:59:04.879Z,240.8462
2023-05-18T07:00:05.861Z,242.6154
2023-05-18T07:01:06.976Z,241.2308
2023-05-18T07:02:07.894Z,242.9231
2023-05-18T07:03:09.036Z,250.4615
2023-05-18T07:04:10.070Z,250.4615
2023-05-18T07:05:11.109Z,248.6923
2023-05-18T07:06:12.194Z,246.7692
2023-05-18T07:07:13.155Z,238.2308
2023-05-18T07:08:14.222Z,231.3077
2023-05-18T07:09:15.254Z,229.0000
2023-05-18T07:10:16.348Z,232.5385
2023-05-18T07:11:17.356Z,239.2308
2023-05-18T07:12:18.391Z,246.7692
2023-05-18T07:13:19.529Z,242.5385
2023-05-18T07:14:20.525Z,238.6923
2023-05-18T07:15:21.609Z,243.4615
2023-05-18T07:16:22.744Z,240.8462
2023-05-18T07:17:23.620Z,238.5385
2023-05-18T07:18:24.656Z,239.1538
2023-05-18T07:19:25.739Z,242.0000
2023-05-18T07:20:26.801Z,237.0000
2023-05-18T07:21:27.853Z,237.9231
2023-05-18T07:22:28.813Z,237.3077
2023-05-18T07:23:29.862Z,244.1538
2023-05-18T07:24:30.898Z,248.9231
2023-05-18T07:25:32.245Z,241.8462
2023-05-18T07:26:33.092Z,235.4615
2023-05-18T07:27:34.094Z,237.5385
2023-05-18T07:28:35.074Z,242.7692
2023-05-18T07:29:36.096Z,233.0000
2023-05-18T07:30:37.238Z,224.4615
2023-05-18T07:31:38.329Z,222.6154
2023-05-18T07:32:39.368Z,221.7692
2023-05-18T07:33:41.169Z,218.6923
2023-05-18T07:34:41.377Z,221.0000
2023-05-18T07:35:42.483Z,221.2308
2023-05-18T07:36:43.521Z,222.9231
2023-05-18T07:37:44.520Z,234.9231
2023-05-18T07:38:45.562Z,243.4615
2023-05-18T07:39:46.587Z,254.2308
2023-05-18T07:40:47.705Z,251.3077
2023-05-18T07:41:48.749Z,241.1538
2023-05-18T07:42:49.774Z,238.7692
2023-05-18T07:43:50.751Z,241.3846
2023-05-18T07:44:51.797Z,249.5385
2023-05-18T07:45:52.886Z,259.0000
2023-05-18T07:46:54.017Z,257.8462
2023-05-18T07:47:55.056Z,248.9231
2023-05-18T07:48:56.075Z,250.4615
2023-05-18T07:49:56.974Z,243.0000
2023-05-18T07:50:58.130Z,236.5385
2023-05-18T07:51:59.176Z,236.4615
2023-05-18T07:53:00.227Z,232.8462
2023-05-18T07:54:01.187Z,232.9231
2023-05-18T07:55:02.297Z,229.3846
2023-05-18T07:56:03.298Z,228.8462
2023-05-18T07:57:04.377Z,234.7692
2023-05-18T07:58:05.335Z,240.0769
2023-05-18T07:59:06.473Z,245.6923
2023-05-18T08:00:07.432Z,240.6923
2023-05-18T08:01:08.529Z,239.8462
2023-05-18T08:02:09.618Z,245.4615
2023-05-18T08:03:10.626Z,240.0769
2023-05-18T08:04:11.675Z,243.5385
2023-05-18T08:05:12.672Z,256.0769
2023-05-18T08:06:13.732Z,257.6154
2023-05-18T08:07:14.774Z,247.7692
2023-05-18T08:08:15.716Z,252.5385
2023-05-18T08:09:16.881Z,249.8462
2023-05-18T08:10:17.822Z,247.5385
2023-05-18T08:11:18.900Z,241.7692
2023-05-18T08:12:19.997Z,241.6923
2023-05-18T08:13:21.020Z,245.9231
2023-05-18T08:14:22.044Z,236.6923
2023-05-18T08:15:23.032Z,238.1538
2023-05-18T08:16:24.211Z,235.9231
2023-05-18T08:17:25.221Z,240.5385
2023-05-18T08:18:26.213Z,243.0769
2023-05-18T08:19:27.297Z,248.2308
2023-05-18T08:20:28.284Z,255.0769
2023-05-18T08:21:29.376Z,252.2308
2023-05-18T08:22:30.432Z,248.0000
2023-05-18T08:23:31.367Z,249.4615
2023-05-18T08:24:32.422Z,239.7692
2023-05-18T08:25:33.615Z,240.7692
2023-05-18T08:26:34.623Z,241.3077
2023-05-18T08:27:35.670Z,248.2308
2023-05-18T08:28:36.641Z,240.5385
2023-05-18T08:29:37.706Z,230.5385
2023-05-18T08:30:38.786Z,227.6154
2023-05-18T08:31:39.887Z,231.1538
2023-05-18T08:32:40.920Z,240.6154
2023-05-18T08:33:41.832Z,251.2308
2023-05-18T08:34:42.929Z,255.0769
2023-05-18T08:35:43.925Z,254.2308
2023-05-18T08:36:45.048Z,251.1538
2023-05-18T08:37:46.032Z,254.6923
2023-05-18T08:38:47.069Z,262.0000
2023-05-18T08:39:48.075Z,259.1538
2023-05-18T08:40:49.152Z,257.6154
2023-05-18T08:41:50.230Z,263.3846
2023-05-18T08:42:51.276Z,264.5385
2023-05-18T08:43:52.274Z,270.5385
2023-05-18T08:44:53.298Z,267.5385
2023-05-18T08:45:54.334Z,280.6923
2023-05-18T08:46:55.438Z,280.8462
2023-05-18T08:47:56.777Z,274.3846
2023-05-18T08:48:57.481Z,278.4615
2023-05-18T08:49:58.542Z,281.6154
2023-05-18T08:50:59.548Z,290.2308
2023-05-18T08:52:00.693Z,293.8462
2023-05-18T08:53:01.694Z,292.9231
2023-05-18T08:54:02.674Z,296.4615
2023-05-18T08:55:03.813Z,290.2308
2023-05-18T08:56:04.828Z,288.6923
2023-05-18T08:57:05.884Z,265.3846
2023-05-18T08:58:06.893Z,265.3846
2023-05-18T08:59:08.203Z,263.7692
2023-05-18T09:00:08.998Z,263.1538
2023-05-18T09:01:09.965Z,269.4615
2023-05-18T09:02:11.178Z,271.1538
2023-05-18T09:03:12.196Z,284.6154
2023-05-18T09:04:13.145Z,281.4615
2023-05-18T09:05:14.201Z,273.6154
2023-05-18T09:06:15.177Z,262.6154
2023-05-18T09:07:16.279Z,265.9231
2023-05-18T09:08:17.310Z,270.9231
2023-05-18T09:09:18.341Z,263.2308
2023-05-18T09:10:19.353Z,267.6154
2023-05-18T09:11:20.435Z,282.2308
2023-05-18T09:12:23.595Z,273.7692
2023-05-18T09:13:22.573Z,253.1538
2023-05-18T09:14:23.549Z,244.3077
2023-05-18T09:15:24.594Z,244.4615
2023-05-18T09:16:25.657Z,252.3846
2023-05-18T09:17:26.723Z,263.6923
2023-05-18T09:18:28.468Z,264.5385
2023-05-18T09:19:28.922Z,263.3077
2023-05-18T09:20:29.812Z,260.3077
2023-05-18T09:21:30.812Z,253.4615
2023-05-18T09:22:31.923Z,258.3846
2023-05-18T09:23:32.934Z,257.3077
2023-05-18T09:24:34.070Z,262.3077
2023-05-18T09:25:35.125Z,267.2308
2023-05-18T09:26:36.110Z,273.8462
2023-05-18T09:27:37.370Z,275.3077
2023-05-18T09:28:38.267Z,267.1538
2023-05-18T09:29:39.280Z,269.6154
2023-05-18T09:30:40.351Z,279.9231
2023-05-18T09:31:41.419Z,281.4615
2023-05-18T09:32:42.463Z,283.3077
2023-05-18T09:33:43.546Z,277.9231
2023-05-18T09:34:44.521Z,261.7692
2023-05-18T09:35:45.548Z,263.0000
2023-05-18T09:36:46.555Z,267.0769
2023-05-18T09:37:47.693Z,260.4615
2023-05-18T09:38:48.761Z,254.1538
2023-05-18T09:39:49.704Z,250.6154
2023-05-18T09:40:50.753Z,248.2308
2023-05-18T09:41:51.774Z,262.7692
2023-05-18T09:42:52.873Z,292.0000
2023-05-18T09:43:54.004Z,304.0000
2023-05-18T09:44:54.914Z,298.0000
2023-05-18T09:45:55.934Z,291.2308
2023-05-18T09:46:57.077Z,284.7692
2023-05-18T09:47:58.198Z,281.0000
2023-05-18T09:48:59.133Z,284.9231
2023-05-18T09:49:59.992Z,303.0000
2023-05-18T09:51:01.101Z,311.2308
2023-05-18T09:52:02.304Z,305.0769
2023-05-18T09:53:03.241Z,306.6154
2023-05-18T09:54:04.208Z,305.3077
2023-05-18T09:55:05.254Z,301.9231
2023-05-18T09:56:06.281Z,296.6154
2023-05-18T09:57:11.223Z,292.1538
2023-05-18T09:58:08.400Z,292.8462
2023-05-18T09:59:09.463Z,297.6923
2023-05-18T10:00:10.545Z,294.2308
2023-05-18T10:01:11.604Z,273.2308
2023-05-18T10:02:12.517Z,298.3846
2023-05-18T10:03:13.595Z,314.2308
2023-05-18T10:04:14.696Z,307.0769
2023-05-18T10:05:15.724Z,305.3077
2023-05-18T10:06:16.694Z,304.0769
2023-05-18T10:07:17.800Z,325.3846
2023-05-18T10:08:18.789Z,323.3077
2023-05-18T10:09:19.878Z,305.4615
2023-05-18T10:10:20.965Z,310.5385
2023-05-18T10:11:22.041Z,310.4615
2023-05-18T10:12:22.966Z,298.6923
2023-05-18T10:13:23.992Z,303.4615
2023-05-18T10:14:25.106Z,301.6923
2023-05-18T10:15:26.149Z,305.3077
2023-05-18T10:16:27.154Z,314.4615
2023-05-18T10:17:28.221Z,316.3846
2023-05-18T10:18:29.247Z,314.4615
2023-05-18T10:19:30.343Z,324.1538
2023-05-18T10:20:31.537Z,320.6923
2023-05-18T10:21:32.342Z,325.8462
2023-05-18T10:22:33.354Z,321.6154
2023-05-18T10:23:34.414Z,324.7692
2023-05-18T10:24:35.439Z,335.6923
2023-05-18T10:25:36.517Z,324.3846
2023-05-18T10:26:37.574Z,314.0000
2023-05-18T10:27:38.554Z,312.8462
2023-05-18T10:28:39.583Z,310.4615
2023-05-18T10:29:40.617Z,316.0769
2023-05-18T10:30:41.727Z,329.1538
2023-05-18T10:31:42.723Z,335.6154
2023-05-18T10:32:43.818Z,328.4615
2023-05-18T10:33:44.792Z,313.5385
2023-05-18T10:34:45.838Z,309.3846
2023-05-18T10:35:46.978Z,310.0769
2023-05-18T10:36:47.932Z,315.6923
2023-05-18T10:37:48.951Z,318.4615
2023-05-18T10:38:49.976Z,312.6154
2023-05-18T10:39:51.006Z,317.6923
2023-05-18T10:40:52.118Z,324.3077
2023-05-18T10:41:53.130Z,317.9231
2023-05-18T10:42:54.155Z,338.1538
2023-05-18T10:43:55.348Z,340.5385
2023-05-18T10:44:56.201Z,352.0769
2023-05-18T10:45:57.462Z,345.5385
2023-05-18T10:46:58.447Z,345.6923
2023-05-18T10:47:59.334Z,354.6923
2023-05-18T10:49:00.386Z,360.0769
2023-05-18T10:50:01.409Z,360.4615
2023-05-18T10:51:02.520Z,346.2308
2023-05-18T10:52:03.710Z,327.5385
2023-05-18T10:53:04.695Z,317.9231
2023-05-18T10:54:05.567Z,309.5385
2023-05-18T10:55:06.604Z,310.1538
2023-05-18T10:56:07.662Z,314.6154
2023-05-18T10:57:08.692Z,311.5385
2023-05-18T10:58:09.710Z,310.3846
2023-05-18T10:59:10.784Z,304.2308
2023-05-18T11:00:11.792Z,305.3077
2023-05-18T11:01:12.934Z,304.9231
2023-05-18T11:02:13.944Z,307.6154
2023-05-18T11:03:14.985Z,323.7692
2023-05-18T11:04:16.118Z,321.1538
2023-05-18T11:05:17.156Z,332.6923
2023-05-18T11:06:18.080Z,331.0769
2023-05-18T11:07:19.143Z,329.7692
2023-05-18T11:08:20.132Z,327.6154
2023-05-18T11:09:21.186Z,331.9231
2023-05-18T11:10:22.208Z,315.6154
2023-05-18T11:11:23.316Z,318.3846
2023-05-18T11:12:24.369Z,310.3077
2023-05-18T11:13:25.400Z,320.2308
2023-05-18T11:14:26.397Z,327.8462
2023-05-18T11:15:27.437Z,331.3846
2023-05-18T11:16:30.557Z,323.5385
2023-05-18T11:17:29.681Z,320.9231
2023-05-18T11:18:30.562Z,327.3846
2023-05-18T11:19:31.597Z,335.3077
2023-05-18T11:20:32.805Z,336.6154
2023-05-18T11:21:33.816Z,336.6923
2023-05-18T11:22:34.761Z,337.4615
2023-05-18T11:23:35.815Z,348.2308
2023-05-18T11:24:36.786Z,326.0769
2023-05-18T11:25:37.855Z,315.2308
2023-05-18T11:26:38.973Z,329.1538
2023-05-18T11:27:40.036Z,328.7692
2023-05-18T11:28:40.971Z,320.6154
2023-05-18T11:29:42.179Z,318.8462
2023-05-18T11:30:43.041Z,336.1538
2023-05-18T11:31:44.205Z,330.1538
2023-05-18T11:32:45.329Z,329.3846
2023-05-18T11:33:46.301Z,335.6154
2023-05-18T11:34:47.245Z,336.4615
2023-05-18T11:35:48.280Z,333.3077
2023-05-18T11:36:49.319Z,311.0000
2023-05-18T11:37:50.413Z,298.4615
2023-05-18T11:38:51.424Z,296.3846
2023-05-18T11:39:59.103Z,309.5385
2023-05-18T11:40:53.485Z,311.6154
2023-05-18T11:41:54.537Z,299.6923
2023-05-18T11:42:55.556Z,314.0769
2023-05-18T11:43:56.643Z,330.7692
2023-05-18T11:44:57.666Z,352.5385
2023-05-18T11:45:59.409Z,349.5385
2023-05-18T11:46:59.734Z,354.3846
2023-05-18T11:48:00.848Z,336.4615
2023-05-18T11:49:01.898Z,325.3846
2023-05-18T11:50:02.899Z,328.6923
2023-05-18T11:51:03.936Z,340.9231
2023-05-18T11:52:04.990Z,346.1538
2023-05-18T11:53:05.980Z,343.6154
2023-05-18T11:54:07.105Z,352.1538
2023-05-18T11:55:08.070Z,354.0769
2023-05-18T11:56:09.133Z,345.6923
2023-05-18T11:57:11.045Z,320.1538